Time;durP1;ratioP1;P1;durP2;ratioP2;P2;SDS_P1;SDS_P2;PMS_P1;PMS_P2;Temp;Humidity;BMP_temperature;BMP_pressure;BME280_temperature;BME280_humidity;BME280_pressure;Samples;Min_cycle;Max_cycle;Signal;HPM_P1;HPM_P2
2023/11/06 00:02:05;;;;;;;1.65;1.10;;;10.50;99.90;;;;;;5043074;28;20039;-36
2023/11/06 00:04:35;;;;;;;3.65;1.30;;;10.50;99.90;;;;;;5043520;28;20037;-36
2023/11/06 00:07:00;;;;;;;1.45;0.90;;;10.50;99.90;;;;;;5043396;28;20025;-36
2023/11/06 00:09:26;;;;;;;2.97;1.02;;;10.50;99.90;;;;;;5042939;28;20025;-37
2023/11/06 00:11:51;;;;;;;2.05;1.10;;;10.40;99.90;;;;;;5043528;28;20063;-36
2023/11/06 00:14:17;;;;;;;4.88;1.27;;;10.40;99.90;;;;;;5042674;28;20037;-37
2023/11/06 00:16:43;;;;;;;3.58;1.20;;;10.40;99.90;;;;;;5043245;28;20104;-37
2023/11/06 00:19:08;;;;;;;1.88;1.00;;;10.40;99.90;;;;;;5043708;28;20033;-37
2023/11/06 00:21:37;;;;;;;4.78;1.30;;;10.40;99.90;;;;;;5043332;28;20024;-37
2023/11/06 00:24:03;;;;;;;2.15;1.33;;;10.40;99.90;;;;;;5042791;28;20744;-36
2023/11/06 00:26:29;;;;;;;3.05;1.05;;;10.40;99.90;;;;;;5041646;28;20029;-36
2023/11/06 00:28:55;;;;;;;1.75;1.20;;;10.40;99.90;;;;;;5042323;28;20032;-37
2023/11/06 00:31:21;;;;;;;1.98;1.13;;;10.40;99.90;;;;;;5042551;28;20427;-36
2023/11/06 00:33:48;;;;;;;1.95;1.10;;;10.30;99.90;;;;;;5042361;28;20060;-37
2023/11/06 00:36:22;;;;;;;2.08;1.00;;;10.30;99.90;;;;;;5042467;28;20071;-37
2023/11/06 00:38:48;;;;;;;2.60;1.02;;;10.30;99.90;;;;;;5043415;28;20029;-37
2023/11/06 00:41:14;;;;;;;1.73;1.00;;;10.30;99.90;;;;;;5042377;28;20028;-37
2023/11/06 00:43:41;;;;;;;2.00;1.00;;;10.20;99.90;;;;;;5042328;28;20017;-37
2023/11/06 00:46:06;;;;;;;4.18;1.10;;;10.30;99.90;;;;;;5043141;28;20079;-37
2023/11/06 00:48:33;;;;;;;4.75;1.27;;;10.30;99.90;;;;;;5042142;28;20037;-38
2023/11/06 00:50:59;;;;;;;4.30;1.70;;;10.30;99.90;;;;;;5042116;28;20033;-37
2023/11/06 00:53:25;;;;;;;3.13;1.30;;;10.30;99.90;;;;;;5042318;28;20036;-37
2023/11/06 00:55:54;;;;;;;5.30;1.20;;;10.30;99.90;;;;;;5042597;28;20526;-38
2023/11/06 00:58:20;;;;;;;1.65;1.23;;;10.40;99.90;;;;;;5041764;28;20079;-37
2023/11/06 01:00:48;;;;;;;1.70;0.98;;;10.40;99.90;;;;;;5042448;28;20021;-37
2023/11/06 01:03:14;;;;;;;1.95;1.00;;;10.40;99.90;;;;;;5041969;28;20380;-38
2023/11/06 01:05:39;;;;;;;2.22;1.40;;;10.30;99.90;;;;;;5041962;28;20017;-41
2023/11/06 01:08:05;;;;;;;2.72;1.20;;;10.30;99.90;;;;;;5042879;28;20127;-37
2023/11/06 01:10:40;;;;;;;2.55;1.30;;;10.30;99.90;;;;;;5031443;28;20039;-43
2023/11/06 01:13:05;;;;;;;3.70;1.25;;;10.20;99.90;;;;;;5041827;28;20050;-37
2023/11/06 01:15:35;;;;;;;1.75;1.10;;;10.20;99.90;;;;;;5042723;28;20033;-37
2023/11/06 01:18:01;;;;;;;3.10;1.00;;;10.20;99.90;;;;;;5041971;28;20024;-38
2023/11/06 01:20:27;;;;;;;2.15;1.55;;;10.20;99.90;;;;;;5041510;28;20040;-38
2023/11/06 01:22:52;;;;;;;1.10;0.73;;;10.20;99.90;;;;;;5042789;28;20037;-37
2023/11/06 01:25:18;;;;;;;1.98;1.20;;;10.30;99.90;;;;;;5041434;28;20037;-39
2023/11/06 01:27:50;;;;;;;2.13;0.90;;;10.30;99.90;;;;;;5041724;28;20021;-37
2023/11/06 01:30:15;;;;;;;1.73;1.30;;;10.30;99.90;;;;;;5040941;28;20463;-38
2023/11/06 01:32:41;;;;;;;1.83;0.77;;;10.20;99.90;;;;;;5042190;28;20070;-36
2023/11/06 01:35:07;;;;;;;1.60;1.00;;;10.20;99.90;;;;;;5042339;28;20863;-37
2023/11/06 01:37:36;;;;;;;1.67;0.63;;;10.20;99.90;;;;;;5041466;28;20066;-40
2023/11/06 01:40:02;;;;;;;1.13;0.70;;;10.20;99.90;;;;;;5041508;28;20029;-37
2023/11/06 01:42:31;;;;;;;1.73;0.85;;;10.30;99.90;;;;;;5041219;28;20117;-37
2023/11/06 01:44:57;;;;;;;1.85;0.88;;;10.30;99.90;;;;;;5041342;28;20029;-37
2023/11/06 01:47:24;;;;;;;1.05;0.70;;;10.30;99.90;;;;;;5041435;28;20480;-38
2023/11/06 01:49:50;;;;;;;1.60;1.10;;;10.30;99.90;;;;;;5041665;28;20033;-37
2023/11/06 01:52:20;;;;;;;2.55;1.00;;;10.40;99.90;;;;;;5041196;28;20020;-37
2023/11/06 01:54:46;;;;;;;1.67;0.75;;;10.40;99.90;;;;;;5041070;28;20372;-37
2023/11/06 01:57:15;;;;;;;1.05;0.95;;;10.40;99.90;;;;;;5041535;28;20025;-37
2023/11/06 01:59:42;;;;;;;1.77;0.70;;;10.50;99.90;;;;;;5041505;28;20025;-36
2023/11/06 02:02:08;;;;;;;0.68;0.50;;;10.50;99.90;;;;;;5041356;28;20025;-36
2023/11/06 02:04:34;;;;;;;1.33;0.65;;;10.50;99.90;;;;;;5041165;28;20238;-37
2023/11/06 02:07:00;;;;;;;2.20;0.60;;;10.50;99.90;;;;;;5040541;28;20487;-37
2023/11/06 02:09:28;;;;;;;0.57;0.55;;;10.60;99.90;;;;;;5040528;28;20032;-37
2023/11/06 02:11:58;;;;;;;2.40;0.60;;;10.60;99.90;;;;;;5040863;28;20082;-37
2023/11/06 02:14:24;;;;;;;2.70;0.70;;;10.60;99.90;;;;;;5040371;28;20043;-37
2023/11/06 02:16:51;;;;;;;0.82;0.80;;;10.70;99.90;;;;;;5040311;28;20035;-37
2023/11/06 02:19:17;;;;;;;1.58;1.00;;;10.70;99.90;;;;;;5040613;28;20100;-37
2023/11/06 02:21:49;;;;;;;5.90;1.10;;;10.70;99.90;;;;;;5040393;28;20538;-36
2023/11/06 02:24:15;;;;;;;2.53;1.10;;;10.70;99.90;;;;;;5039680;28;20025;-37
2023/11/06 02:26:54;;;;;;;3.22;0.90;;;10.70;99.90;;;;;;5041005;28;20032;-36
2023/11/06 02:29:20;;;;;;;3.58;1.33;;;10.70;99.90;;;;;;5040517;28;20025;-37
2023/11/06 02:31:46;;;;;;;1.38;1.08;;;10.70;99.90;;;;;;5040459;28;20024;-37
2023/11/06 02:34:11;;;;;;;2.85;1.42;;;10.70;99.90;;;;;;5039964;28;20040;-37
2023/11/06 02:36:37;;;;;;;3.55;1.40;;;10.70;99.90;;;;;;5039728;28;20052;-36
2023/11/06 02:39:03;;;;;;;1.83;1.70;;;10.60;99.90;;;;;;5040444;28;20032;-36
2023/11/06 02:41:28;;;;;;;3.25;1.30;;;10.70;99.90;;;;;;5039990;28;20029;-36
2023/11/06 02:43:54;;;;;;;2.38;1.20;;;10.70;99.90;;;;;;5040106;28;20509;-37
2023/11/06 02:46:19;;;;;;;3.00;1.40;;;10.70;99.90;;;;;;5041306;28;20075;-36
2023/11/06 02:48:45;;;;;;;2.47;1.20;;;10.70;99.90;;;;;;5040217;28;20032;-36
2023/11/06 02:51:10;;;;;;;2.90;1.70;;;10.60;99.90;;;;;;5040741;28;20104;-37
2023/11/06 02:53:36;;;;;;;3.00;1.50;;;10.60;99.90;;;;;;5041271;28;20048;-36
2023/11/06 02:56:01;;;;;;;4.13;1.40;;;10.60;99.90;;;;;;5040541;28;20515;-36
2023/11/06 02:58:27;;;;;;;3.28;1.85;;;10.60;99.90;;;;;;5039823;28;20094;-37
2023/11/06 03:00:53;;;;;;;2.13;1.30;;;10.60;99.90;;;;;;5040840;28;20036;-41
2023/11/06 03:03:20;;;;;;;4.07;1.55;;;10.60;99.90;;;;;;5040223;28;20111;-37
2023/11/06 03:05:45;;;;;;;3.50;1.15;;;10.60;99.90;;;;;;5040842;28;20040;-36
2023/11/06 03:08:17;;;;;;;3.53;1.42;;;10.60;99.90;;;;;;5040168;28;20389;-36
2023/11/06 03:10:42;;;;;;;2.20;1.23;;;10.60;99.90;;;;;;5041103;28;20158;-37
2023/11/06 03:13:08;;;;;;;2.97;1.40;;;10.50;99.90;;;;;;5039700;28;20762;-37
2023/11/06 03:15:35;;;;;;;2.58;1.40;;;10.50;99.90;;;;;;5039827;28;20654;-36
2023/11/06 03:18:01;;;;;;;2.28;1.20;;;10.50;99.90;;;;;;5040251;28;20025;-37
2023/11/06 03:20:26;;;;;;;2.88;1.13;;;10.50;99.90;;;;;;5039647;28;20864;-37
2023/11/06 03:22:52;;;;;;;2.42;1.25;;;10.50;99.90;;;;;;5039987;28;20521;-37
2023/11/06 03:25:20;;;;;;;3.28;1.25;;;10.40;99.90;;;;;;5038915;28;20120;-37
2023/11/06 03:27:49;;;;;;;3.85;1.38;;;10.50;99.90;;;;;;5039870;28;20021;-37
2023/11/06 03:30:14;;;;;;;4.68;1.73;;;10.50;99.90;;;;;;5039121;28;20726;-38
2023/11/06 03:32:40;;;;;;;3.28;1.10;;;10.50;99.90;;;;;;5039337;28;20033;-36
2023/11/06 03:35:06;;;;;;;2.50;1.10;;;10.50;99.90;;;;;;5039331;28;20090;-37
2023/11/06 03:37:32;;;;;;;2.70;1.10;;;10.50;99.90;;;;;;5039475;28;20049;-37
2023/11/06 03:39:58;;;;;;;3.00;1.13;;;10.50;99.90;;;;;;5039842;28;20040;-37
2023/11/06 03:42:23;;;;;;;2.03;1.10;;;10.50;99.90;;;;;;5040124;28;20039;-36
2023/11/06 03:44:50;;;;;;;2.75;1.40;;;10.50;99.90;;;;;;5040120;28;20053;-36
2023/11/06 03:47:16;;;;;;;3.97;1.35;;;10.50;99.90;;;;;;5039375;28;20025;-44
2023/11/06 03:49:41;;;;;;;3.72;1.25;;;10.50;99.90;;;;;;5040237;28;20590;-36
2023/11/06 03:52:10;;;;;;;4.03;1.30;;;10.50;99.90;;;;;;5039941;28;20029;-36
2023/11/06 03:54:40;;;;;;;2.65;1.10;;;10.50;99.90;;;;;;5039197;28;20088;-39
2023/11/06 03:57:06;;;;;;;3.17;1.20;;;10.50;99.90;;;;;;5039644;28;20108;-38
2023/11/06 03:59:32;;;;;;;3.20;1.10;;;10.50;99.90;;;;;;5040687;28;20021;-39
2023/11/06 04:01:58;;;;;;;1.25;0.85;;;10.50;99.90;;;;;;5043283;28;20021;-37
2023/11/06 04:04:23;;;;;;;2.25;0.90;;;10.50;99.90;;;;;;5043545;28;20027;-37
2023/11/06 04:06:49;;;;;;;2.78;1.02;;;10.50;99.90;;;;;;5043602;28;20465;-37
2023/11/06 04:09:14;;;;;;;1.83;0.88;;;10.50;99.90;;;;;;5041973;28;20021;-37
2023/11/06 04:11:40;;;;;;;1.23;0.77;;;10.40;99.90;;;;;;5043651;28;20056;-39
2023/11/06 04:14:06;;;;;;;1.65;0.75;;;10.40;99.90;;;;;;5043530;28;20053;-37
2023/11/06 04:16:34;;;;;;;1.90;0.85;;;10.30;99.90;;;;;;5043633;28;20095;-36
2023/11/06 04:19:00;;;;;;;3.47;1.08;;;10.30;99.90;;;;;;5042911;28;20025;-37
2023/11/06 04:21:28;;;;;;;2.55;0.80;;;10.20;99.90;;;;;;5041839;28;20047;-37
2023/11/06 04:23:54;;;;;;;2.60;0.70;;;10.10;99.90;;;;;;5043322;28;20033;-38
2023/11/06 04:26:20;;;;;;;3.20;0.80;;;10.10;99.90;;;;;;5042515;28;20354;-37
2023/11/06 04:28:45;;;;;;;1.88;0.85;;;10.10;99.90;;;;;;5042827;28;20025;-37
2023/11/06 04:31:12;;;;;;;1.55;0.95;;;10.10;99.90;;;;;;5042954;28;20384;-37
2023/11/06 04:33:37;;;;;;;1.23;0.80;;;10.00;99.90;;;;;;5023085;28;20373;-37
2023/11/06 04:36:03;;;;;;;2.15;0.90;;;10.00;99.90;;;;;;5036208;28;20577;-37
2023/11/06 04:38:29;;;;;;;3.55;1.02;;;10.00;99.90;;;;;;5042498;28;20122;-37
2023/11/06 04:40:55;;;;;;;4.38;1.10;;;9.90;99.90;;;;;;5041863;28;20627;-36
2023/11/06 04:43:20;;;;;;;3.10;1.10;;;9.90;99.90;;;;;;5042354;28;20491;-37
2023/11/06 04:45:50;;;;;;;1.40;0.82;;;9.80;99.90;;;;;;5042520;28;20052;-37
2023/11/06 04:48:16;;;;;;;2.22;0.80;;;9.80;99.90;;;;;;5042037;28;20028;-36
2023/11/06 04:50:42;;;;;;;2.13;0.65;;;9.80;99.90;;;;;;5041944;28;20130;-35
2023/11/06 04:53:07;;;;;;;2.90;1.08;;;9.80;99.90;;;;;;5042729;28;20380;-36
2023/11/06 04:55:33;;;;;;;2.75;0.88;;;9.80;99.90;;;;;;5041827;28;20029;-36
2023/11/06 04:57:59;;;;;;;4.32;0.90;;;9.70;99.90;;;;;;5041382;28;20698;-37
2023/11/06 05:00:24;;;;;;;2.17;0.70;;;9.70;99.90;;;;;;5042252;28;20036;-34
2023/11/06 05:02:59;;;;;;;3.22;0.90;;;9.70;99.90;;;;;;5037986;28;20098;-36
2023/11/06 05:05:24;;;;;;;2.92;0.80;;;9.70;99.90;;;;;;5040192;28;20131;-36
2023/11/06 05:07:50;;;;;;;1.27;0.70;;;9.70;99.90;;;;;;5040881;28;20013;-37
2023/11/06 05:10:22;;;;;;;3.38;0.90;;;9.70;99.90;;;;;;5041181;28;20102;-37
2023/11/06 05:12:47;;;;;;;4.28;0.82;;;9.60;99.90;;;;;;5040343;28;20025;-37
2023/11/06 05:15:13;;;;;;;4.15;1.08;;;9.60;99.90;;;;;;5040630;28;20365;-36
2023/11/06 05:17:38;;;;;;;4.07;1.25;;;9.60;99.90;;;;;;5040904;28;20110;-36
2023/11/06 05:20:12;;;;;;;3.70;0.90;;;9.60;99.90;;;;;;5041024;28;20124;-36
2023/11/06 05:22:39;;;;;;;2.25;0.80;;;9.60;99.90;;;;;;5041743;28;20057;-37
2023/11/06 05:25:05;;;;;;;2.83;0.80;;;9.60;99.90;;;;;;5042101;28;20060;-36
2023/11/06 05:27:31;;;;;;;2.83;0.90;;;9.60;99.90;;;;;;5042196;28;20128;-35
2023/11/06 05:29:57;;;;;;;2.40;0.95;;;9.60;99.90;;;;;;5041492;28;20110;-35
2023/11/06 05:32:23;;;;;;;3.75;1.23;;;9.60;99.90;;;;;;5040796;28;20025;-36
2023/11/06 05:34:48;;;;;;;2.70;0.82;;;9.60;99.90;;;;;;5041541;28;20044;-35
2023/11/06 05:37:14;;;;;;;1.60;0.47;;;9.60;99.90;;;;;;5040666;28;20056;-38
2023/11/06 05:39:42;;;;;;;2.17;0.63;;;9.60;99.90;;;;;;5041251;28;20033;-38
2023/11/06 05:42:08;;;;;;;1.60;0.60;;;9.50;99.90;;;;;;5041389;28;20151;-37
2023/11/06 05:44:33;;;;;;;2.08;0.75;;;9.60;99.90;;;;;;5040931;28;20102;-35
2023/11/06 05:46:59;;;;;;;2.42;0.73;;;9.60;99.90;;;;;;5040416;28;20052;-36
2023/11/06 05:49:24;;;;;;;1.63;0.52;;;9.60;99.90;;;;;;5041545;28;20036;-36
2023/11/06 05:51:50;;;;;;;2.13;0.60;;;9.60;99.90;;;;;;5041573;28;20659;-37
2023/11/06 05:54:17;;;;;;;4.03;0.93;;;9.60;99.90;;;;;;5040515;28;20080;-37
2023/11/06 05:56:46;;;;;;;3.28;0.93;;;9.60;99.90;;;;;;5041750;28;20090;-38
2023/11/06 05:59:12;;;;;;;2.65;0.68;;;9.60;99.90;;;;;;5040980;28;20036;-37
2023/11/06 06:01:37;;;;;;;2.55;0.82;;;9.60;99.90;;;;;;5041713;28;20025;-37
2023/11/06 06:04:03;;;;;;;3.25;0.85;;;9.60;99.90;;;;;;5041022;28;20036;-39
2023/11/06 06:06:28;;;;;;;3.03;1.08;;;9.70;99.90;;;;;;5041803;28;20024;-36
2023/11/06 06:08:54;;;;;;;3.13;0.90;;;9.70;99.90;;;;;;5041870;28;20020;-36
2023/11/06 06:11:20;;;;;;;5.18;1.20;;;9.70;99.90;;;;;;5040362;28;20563;-37
2023/11/06 06:13:46;;;;;;;3.97;1.30;;;9.70;99.90;;;;;;5041053;28;20039;-37
2023/11/06 06:16:12;;;;;;;3.05;1.60;;;9.70;99.90;;;;;;5041140;28;20525;-36
2023/11/06 06:18:41;;;;;;;3.90;1.27;;;9.80;99.90;;;;;;5041565;28;20035;-37
2023/11/06 06:21:08;;;;;;;3.38;1.10;;;9.80;99.90;;;;;;5040897;28;20020;-38
2023/11/06 06:23:34;;;;;;;4.22;1.10;;;9.80;99.90;;;;;;5040633;28;20024;-37
2023/11/06 06:26:01;;;;;;;4.85;1.42;;;9.90;99.90;;;;;;5040741;28;20033;-37
2023/11/06 06:28:26;;;;;;;4.55;1.73;;;10.00;99.90;;;;;;5040344;28;20029;-37
2023/11/06 06:30:52;;;;;;;4.85;1.65;;;10.00;99.90;;;;;;5041113;28;20025;-37
2023/11/06 06:33:17;;;;;;;5.05;1.73;;;10.00;99.90;;;;;;5038319;28;20051;-37
2023/11/06 06:35:43;;;;;;;4.22;1.63;;;10.10;99.90;;;;;;5039105;28;20029;-37
2023/11/06 06:38:08;;;;;;;3.67;1.73;;;10.10;99.90;;;;;;5039702;28;20076;-38
2023/11/06 06:40:34;;;;;;;5.47;1.75;;;10.10;99.90;;;;;;5039737;28;20028;-37
2023/11/06 06:43:00;;;;;;;3.75;1.45;;;10.20;99.90;;;;;;5039593;28;20029;-37
2023/11/06 06:45:25;;;;;;;4.03;1.70;;;10.20;99.90;;;;;;5040418;28;20103;-36
2023/11/06 06:47:51;;;;;;;4.60;1.65;;;10.20;99.90;;;;;;5039559;28;20029;-37
2023/11/06 06:50:23;;;;;;;5.93;1.63;;;10.20;99.90;;;;;;5038539;28;20082;-38
2023/11/06 06:52:48;;;;;;;6.63;1.97;;;10.20;99.90;;;;;;5040483;28;20021;-36
2023/11/06 06:55:16;;;;;;;6.25;2.22;;;10.20;99.90;;;;;;5039700;28;20276;-37
2023/11/06 06:57:42;;;;;;;5.28;2.15;;;10.20;99.90;;;;;;5039065;28;20126;-36
2023/11/06 07:00:08;;;;;;;6.13;2.10;;;10.20;99.90;;;;;;5039864;28;20057;-37
2023/11/06 07:02:34;;;;;;;5.78;2.40;;;10.20;99.90;;;;;;5039948;28;20025;-36
2023/11/06 07:04:59;;;;;;;9.68;2.45;;;10.20;99.90;;;;;;5039853;28;20486;-37
2023/11/06 07:07:25;;;;;;;9.90;2.45;;;10.20;99.90;;;;;;5028904;28;20028;-37
2023/11/06 07:09:52;;;;;;;8.32;2.30;;;10.10;99.90;;;;;;5040675;28;20017;-37
2023/11/06 07:12:18;;;;;;;6.60;2.22;;;10.10;99.90;;;;;;5039145;28;20032;-36
2023/11/06 07:14:43;;;;;;;5.05;2.15;;;10.10;99.90;;;;;;5040677;28;20037;-37
2023/11/06 07:17:09;;;;;;;6.72;1.92;;;10.10;99.90;;;;;;5039115;28;20028;-37
2023/11/06 07:19:35;;;;;;;9.30;2.15;;;10.10;99.90;;;;;;5039262;28;20111;-37
2023/11/06 07:22:03;;;;;;;7.03;1.90;;;10.10;99.90;;;;;;5038818;28;20070;-38
2023/11/06 07:24:29;;;;;;;7.32;2.70;;;10.10;99.90;;;;;;5039335;28;20056;-37
2023/11/06 07:26:56;;;;;;;4.18;1.88;;;10.10;99.90;;;;;;5039196;28;20769;-38
2023/11/06 07:29:23;;;;;;;9.20;2.25;;;10.00;99.90;;;;;;5040440;28;20264;-37
2023/11/06 07:31:50;;;;;;;4.85;2.00;;;10.00;99.90;;;;;;5040005;28;20104;-36
2023/11/06 07:34:17;;;;;;;3.78;1.88;;;10.00;99.90;;;;;;5039405;28;20076;-36
2023/11/06 07:36:43;;;;;;;7.13;2.45;;;10.00;99.90;;;;;;5042732;28;20072;-36
2023/11/06 07:39:11;;;;;;;5.85;2.13;;;10.00;99.90;;;;;;5043300;28;20377;-36
2023/11/06 07:41:37;;;;;;;3.85;1.80;;;10.00;99.90;;;;;;5043299;28;20021;-36
2023/11/06 07:44:03;;;;;;;4.40;1.80;;;10.00;99.90;;;;;;5043505;28;20037;-36
2023/11/06 07:46:29;;;;;;;5.90;1.77;;;10.10;99.90;;;;;;5043398;28;20020;-37
2023/11/06 07:48:54;;;;;;;5.63;2.05;;;10.10;99.90;;;;;;5044170;28;20039;-36
2023/11/06 07:51:20;;;;;;;7.25;1.70;;;10.10;99.90;;;;;;5043059;28;20721;-36
2023/11/06 07:53:46;;;;;;;7.28;1.75;;;10.20;99.90;;;;;;5043095;28;20128;-37
2023/11/06 07:56:13;;;;;;;6.30;2.00;;;10.30;99.90;;;;;;5042869;28;20056;-37
2023/11/06 07:58:41;;;;;;;6.22;1.63;;;10.30;99.90;;;;;;5043377;28;20024;-37
2023/11/06 08:01:08;;;;;;;6.20;1.52;;;10.30;99.90;;;;;;5043202;28;20049;-36
2023/11/06 08:03:33;;;;;;;7.38;1.85;;;10.30;99.90;;;;;;5043075;28;20091;-37
2023/11/06 08:05:59;;;;;;;6.88;1.70;;;10.30;99.90;;;;;;5043268;28;20032;-37
2023/11/06 08:08:24;;;;;;;3.85;1.38;;;10.40;99.90;;;;;;5043640;28;20472;-36
2023/11/06 08:10:50;;;;;;;4.57;1.58;;;10.40;99.90;;;;;;5043638;28;20891;-36
2023/11/06 08:13:17;;;;;;;4.80;2.00;;;10.40;99.90;;;;;;5042614;28;20040;-37
2023/11/06 08:15:42;;;;;;;5.63;1.80;;;10.40;99.90;;;;;;5043488;28;20025;-36
2023/11/06 08:18:08;;;;;;;7.72;1.90;;;10.40;99.90;;;;;;5043102;28;20025;-36
2023/11/06 08:20:34;;;;;;;4.97;1.48;;;10.40;99.90;;;;;;5042936;28;20255;-36
2023/11/06 08:22:59;;;;;;;8.80;2.15;;;10.40;99.90;;;;;;5043073;28;20024;-37
2023/11/06 08:25:26;;;;;;;7.68;1.80;;;10.40;99.90;;;;;;5042423;28;20091;-37
2023/11/06 08:27:52;;;;;;;8.70;2.40;;;10.40;99.90;;;;;;5042293;28;20458;-37
2023/11/06 08:30:18;;;;;;;8.32;1.70;;;10.40;99.90;;;;;;5043157;28;20025;-37
2023/11/06 08:32:44;;;;;;;5.53;1.60;;;10.40;99.90;;;;;;5043204;28;20021;-36
2023/11/06 08:35:10;;;;;;;5.53;1.58;;;10.50;99.90;;;;;;5042666;28;20098;-36
2023/11/06 08:37:36;;;;;;;4.78;1.63;;;10.50;99.90;;;;;;5043054;28;20128;-37
2023/11/06 08:40:03;;;;;;;5.43;1.80;;;10.50;99.90;;;;;;5043347;28;20031;-37
2023/11/06 08:42:29;;;;;;;3.38;1.40;;;10.60;99.90;;;;;;5042569;28;20029;-36
2023/11/06 08:44:54;;;;;;;6.72;1.58;;;10.60;99.90;;;;;;5042701;28;20032;-36
2023/11/06 08:47:20;;;;;;;5.45;1.75;;;10.60;99.90;;;;;;5040533;28;20040;-38
2023/11/06 08:49:46;;;;;;;5.15;1.38;;;10.70;99.90;;;;;;5041977;28;20108;-37
2023/11/06 08:52:11;;;;;;;8.52;1.70;;;10.70;99.90;;;;;;5042063;28;20044;-38
2023/11/06 08:54:45;;;;;;;7.65;2.05;;;10.80;99.90;;;;;;5042248;28;20541;-37
2023/11/06 08:57:13;;;;;;;8.38;1.70;;;10.80;99.90;;;;;;5041901;28;20018;-37
2023/11/06 08:59:43;;;;;;;8.93;1.83;;;10.80;99.90;;;;;;5041195;28;21054;-37
2023/11/06 09:02:09;;;;;;;7.28;2.28;;;10.90;99.90;;;;;;5042204;28;20449;-37
2023/11/06 09:04:35;;;;;;;7.13;1.77;;;10.90;99.90;;;;;;5041783;28;20025;-36
2023/11/06 09:07:01;;;;;;;7.28;2.00;;;11.00;99.90;;;;;;5042299;28;20025;-37
2023/11/06 09:09:30;;;;;;;7.65;1.95;;;11.00;99.90;;;;;;5042511;28;20021;-37
2023/11/06 09:11:56;;;;;;;7.68;2.00;;;11.10;99.90;;;;;;5041825;28;20392;-41
2023/11/06 09:14:22;;;;;;;8.65;2.13;;;11.20;99.90;;;;;;5041748;28;20079;-37
2023/11/06 09:16:48;;;;;;;10.07;2.30;;;11.30;99.90;;;;;;5041981;28;20060;-37
2023/11/06 09:19:13;;;;;;;11.05;2.53;;;11.40;99.90;;;;;;5041822;28;20033;-37
2023/11/06 09:21:39;;;;;;;7.07;2.35;;;11.50;99.90;;;;;;5042374;28;20083;-37
2023/11/06 09:24:05;;;;;;;8.23;1.77;;;11.60;99.90;;;;;;5041271;28;20104;-37
2023/11/06 09:26:31;;;;;;;7.05;1.70;;;11.60;99.90;;;;;;5041729;28;20075;-37
2023/11/06 09:29:00;;;;;;;7.38;1.95;;;11.60;99.90;;;;;;5042401;28;20037;-37
2023/11/06 09:31:26;;;;;;;5.90;1.50;;;11.60;99.90;;;;;;5041456;28;20029;-37
2023/11/06 09:33:52;;;;;;;8.02;2.13;;;11.60;99.90;;;;;;5042314;28;20087;-38
2023/11/06 09:36:19;;;;;;;6.93;1.90;;;11.60;99.90;;;;;;5041008;28;20483;-37
2023/11/06 09:38:44;;;;;;;7.85;1.95;;;11.60;99.90;;;;;;5041806;28;20025;-36
2023/11/06 09:41:13;;;;;;;8.30;1.70;;;11.70;99.90;;;;;;5041737;28;20483;-36
2023/11/06 09:43:42;;;;;;;6.03;1.90;;;11.70;99.90;;;;;;5041223;28;20031;-37
2023/11/06 09:46:09;;;;;;;8.75;2.15;;;11.80;99.90;;;;;;5041704;28;20024;-37
2023/11/06 09:48:36;;;;;;;12.65;2.92;;;11.90;99.90;;;;;;5041862;28;20047;-36
2023/11/06 09:51:10;;;;;;;12.52;2.60;;;11.90;99.90;;;;;;5042140;28;20063;-48
2023/11/06 09:53:56;;;;;;;9.77;2.38;;;11.90;99.90;;;;;;5041515;28;20475;-36
2023/11/06 09:56:21;;;;;;;7.72;1.88;;;12.00;99.90;;;;;;5041708;28;20582;-37
2023/11/06 09:58:47;;;;;;;10.73;2.15;;;12.10;99.90;;;;;;5042026;28;20060;-37
2023/11/06 10:01:13;;;;;;;6.80;1.92;;;12.10;99.90;;;;;;5041025;28;20025;-37
2023/11/06 10:03:39;;;;;;;8.60;2.05;;;12.20;99.90;;;;;;5041204;28;20017;-37
2023/11/06 10:06:05;;;;;;;6.38;2.47;;;12.30;99.90;;;;;;5040551;28;20108;-37
2023/11/06 10:08:33;;;;;;;6.35;1.55;;;12.40;99.90;;;;;;5041095;28;20324;-37
2023/11/06 10:11:04;;;;;;;7.55;1.90;;;12.50;99.90;;;;;;5041084;28;20079;-38
2023/11/06 10:13:30;;;;;;;7.97;2.17;;;12.60;99.90;;;;;;5040460;28;20040;-45
2023/11/06 10:16:15;;;;;;;7.03;1.80;;;12.70;99.90;;;;;;5040327;28;20028;-44
2023/11/06 10:18:44;;;;;;;7.82;1.88;;;12.70;99.90;;;;;;5040624;28;20037;-44
2023/11/06 10:21:11;;;;;;;5.85;1.55;;;12.70;99.90;;;;;;5040000;28;20025;-45
2023/11/06 10:23:37;;;;;;;6.72;1.70;;;12.70;99.90;;;;;;5040300;28;20021;-45
2023/11/06 10:26:10;;;;;;;9.52;2.70;;;12.70;99.90;;;;;;5041217;28;20044;-45
2023/11/06 10:28:37;;;;;;;9.25;2.50;;;12.70;99.90;;;;;;5039193;28;20056;-44
2023/11/06 10:31:03;;;;;;;5.97;1.65;;;12.70;99.90;;;;;;5041231;28;20029;-44
2023/11/06 10:33:30;;;;;;;7.18;2.15;;;12.70;99.90;;;;;;5040628;28;20045;-44
2023/11/06 10:35:59;;;;;;;7.10;1.83;;;12.80;99.90;;;;;;5040283;28;20028;-44
2023/11/06 10:38:30;;;;;;;7.75;2.10;;;12.80;99.90;;;;;;5040385;28;20037;-44
2023/11/06 10:40:58;;;;;;;9.27;2.28;;;12.90;99.90;;;;;;5021097;28;20032;-44
2023/11/06 10:43:24;;;;;;;8.13;2.00;;;12.90;99.90;;;;;;5035354;28;20045;-44
2023/11/06 10:45:50;;;;;;;10.90;2.00;;;13.00;99.90;;;;;;5040777;28;20040;-44
2023/11/06 10:48:33;;;;;;;7.05;1.80;;;13.00;99.90;;;;;;5039578;28;20851;-44
2023/11/06 10:51:01;;;;;;;6.45;2.00;;;13.00;99.90;;;;;;5040687;28;20032;-44
2023/11/06 10:53:31;;;;;;;5.80;1.73;;;13.00;99.90;;;;;;5039459;28;20036;-44
2023/11/06 10:56:01;;;;;;;7.22;1.63;;;13.00;99.90;;;;;;5039520;28;20055;-45
2023/11/06 10:58:28;;;;;;;9.23;2.40;;;13.00;99.90;;;;;;5039583;28;20801;-44
2023/11/06 11:00:56;;;;;;;7.53;2.10;;;13.00;99.90;;;;;;5040767;28;20028;-43
2023/11/06 11:03:22;;;;;;;8.40;2.45;;;13.00;99.90;;;;;;5038926;28;20734;-43
2023/11/06 11:05:51;;;;;;;6.97;1.90;;;13.00;99.90;;;;;;5040707;28;20479;-43
2023/11/06 11:08:19;;;;;;;8.55;2.10;;;13.00;99.90;;;;;;5038807;28;20039;-44
2023/11/06 11:10:45;;;;;;;6.05;1.73;;;13.00;99.90;;;;;;5039326;28;20071;-44
2023/11/06 11:13:13;;;;;;;6.07;1.90;;;13.00;99.90;;;;;;5039529;28;20025;-44
2023/11/06 11:15:41;;;;;;;7.78;2.63;;;13.00;99.90;;;;;;5040101;28;20039;-43
2023/11/06 11:18:13;;;;;;;8.13;2.03;;;13.10;99.90;;;;;;5038979;28;20037;-43
2023/11/06 11:20:49;;;;;;;9.02;2.17;;;13.10;99.90;;;;;;5040102;28;20025;-43
2023/11/06 11:23:34;;;;;;;6.70;1.90;;;13.10;99.90;;;;;;5039701;28;20535;-44
2023/11/06 11:26:00;;;;;;;7.50;1.90;;;13.10;99.90;;;;;;5040196;28;20025;-43
2023/11/06 11:28:26;;;;;;;10.80;2.30;;;13.00;99.90;;;;;;5039125;28;20063;-44
2023/11/06 11:31:12;;;;;;;6.70;2.00;;;13.00;99.90;;;;;;5040083;28;20109;-44
2023/11/06 11:33:56;;;;;;;5.63;2.00;;;13.10;99.90;;;;;;5039550;28;20724;-44
2023/11/06 11:36:38;;;;;;;5.85;1.60;;;13.10;99.90;;;;;;5039091;28;20128;-44
2023/11/06 11:39:16;;;;;;;9.90;2.22;;;13.00;99.90;;;;;;5038593;28;20032;-44
2023/11/06 11:42:01;;;;;;;7.45;2.17;;;13.00;99.90;;;;;;5029658;28;20032;-44
2023/11/06 11:44:27;;;;;;;12.00;2.58;;;13.00;99.90;;;;;;5038542;28;20404;-44
2023/11/06 11:46:54;;;;;;;7.30;2.38;;;13.00;99.90;;;;;;5039839;28;20074;-44
2023/11/06 11:49:39;;;;;;;4.95;1.60;;;13.00;99.90;;;;;;5039709;28;20040;-45
2023/11/06 11:52:07;;;;;;;5.47;1.80;;;13.00;99.90;;;;;;5029545;28;20594;-44
2023/11/06 11:54:37;;;;;;;5.55;1.60;;;13.00;99.90;;;;;;5039583;28;20709;-44
2023/11/06 11:57:03;;;;;;;7.22;2.03;;;13.10;99.90;;;;;;5039557;28;20384;-44
2023/11/06 11:59:36;;;;;;;5.53;2.00;;;13.10;99.90;;;;;;5039015;28;20138;-44
2023/11/06 12:02:02;;;;;;;5.05;1.55;;;13.10;99.90;;;;;;5039469;28;20036;-44
2023/11/06 12:04:31;;;;;;;7.20;1.80;;;13.10;99.90;;;;;;5039647;28;20060;-44
2023/11/06 12:07:07;;;;;;;11.68;2.35;;;13.20;99.90;;;;;;5039412;28;20035;-45
2023/11/06 12:09:46;;;;;;;5.85;2.03;;;13.10;99.90;;;;;;5039479;28;20060;-44
2023/11/06 12:12:16;;;;;;;6.05;2.00;;;13.10;99.90;;;;;;5036361;28;20029;-44
2023/11/06 12:14:42;;;;;;;5.90;1.90;;;13.10;99.90;;;;;;5039569;28;20435;-45
2023/11/06 12:17:08;;;;;;;5.70;1.70;;;13.10;99.90;;;;;;5038743;28;20479;-44
2023/11/06 12:19:42;;;;;;;6.43;1.90;;;13.10;99.90;;;;;;5039754;28;20026;-44
2023/11/06 12:22:08;;;;;;;3.92;1.55;;;13.10;99.90;;;;;;5042425;28;20101;-43
2023/11/06 12:24:50;;;;;;;6.72;1.88;;;13.10;99.90;;;;;;5041591;28;20465;-43
2023/11/06 12:27:18;;;;;;;7.80;1.95;;;13.20;99.90;;;;;;5039018;28;20033;-44
2023/11/06 12:29:44;;;;;;;7.30;1.73;;;13.20;99.90;;;;;;5041732;28;20036;-44
2023/11/06 12:32:23;;;;;;;7.07;1.88;;;13.20;99.90;;;;;;5041716;28;20380;-44
2023/11/06 12:35:14;;;;;;;5.28;1.90;;;13.20;99.90;;;;;;5042289;28;20140;-44
2023/11/06 12:37:52;;;;;;;5.78;1.65;;;13.20;99.90;;;;;;5040937;28;20060;-43
2023/11/06 12:40:27;;;;;;;4.88;1.35;;;13.20;99.90;;;;;;5041898;28;20037;-45
2023/11/06 12:42:57;;;;;;;7.18;1.77;;;13.20;99.90;;;;;;5041161;28;20066;-45
2023/11/06 12:45:27;;;;;;;7.63;1.80;;;13.20;99.90;;;;;;5041668;28;20842;-46
2023/11/06 12:47:52;;;;;;;5.45;1.70;;;13.20;99.90;;;;;;5041761;28;20094;-44
2023/11/06 12:50:19;;;;;;;5.53;1.58;;;13.20;99.90;;;;;;5041473;28;20029;-45